Time;durP1;ratioP1;P1;durP2;ratioP2;P2;SDS_P1;SDS_P2;PMS_P1;PMS_P2;Temp;Humidity;BMP_temperature;BMP_pressure;BME280_temperature;BME280_humidity;BME280_pressure;Samples;Min_cycle;Max_cycle;Signal;HPM_P1;HPM_P2
2022/03/29 00:02:14;;;;;;;14.93;11.60;;;13.50;52.70;;;;;;5013357;28;20768;-87
2022/03/29 00:04:40;;;;;;;14.03;12.27;;;13.40;52.40;;;;;;5003332;28;20203;-86
2022/03/29 00:07:06;;;;;;;12.70;11.40;;;13.40;52.80;;;;;;5003598;28;20223;-86
2022/03/29 00:09:32;;;;;;;11.30;10.17;;;13.40;52.70;;;;;;5006581;28;20604;-86
2022/03/29 00:11:57;;;;;;;13.87;12.17;;;13.50;52.40;;;;;;5004382;28;20194;-86
2022/03/29 00:14:23;;;;;;;12.77;11.40;;;13.50;52.20;;;;;;5011331;28;20190;-85
2022/03/29 00:16:49;;;;;;;12.20;10.93;;;13.50;52.40;;;;;;5011034;28;20207;-86
2022/03/29 00:19:15;;;;;;;11.77;10.67;;;13.60;52.40;;;;;;5029475;28;20180;-86
2022/03/29 00:21:41;;;;;;;13.20;11.20;;;13.70;52.20;;;;;;5027842;28;20195;-86
2022/03/29 00:24:08;;;;;;;10.13;9.27;;;13.70;51.80;;;;;;5014843;28;20409;-86
2022/03/29 00:26:34;;;;;;;11.10;10.00;;;13.80;51.60;;;;;;5008888;28;20224;-86
2022/03/29 00:29:00;;;;;;;12.30;11.03;;;13.80;51.50;;;;;;5010246;28;20548;-86
2022/03/29 00:31:25;;;;;;;12.17;11.07;;;13.80;51.90;;;;;;5011892;28;20740;-86
2022/03/29 00:33:51;;;;;;;14.27;12.10;;;13.80;51.70;;;;;;5010000;28;20189;-86
2022/03/29 00:36:17;;;;;;;13.10;10.93;;;13.70;52.00;;;;;;5009193;28;20719;-86
2022/03/29 00:38:43;;;;;;;12.30;11.13;;;13.30;52.40;;;;;;5010317;28;20283;-86
2022/03/29 00:41:09;;;;;;;15.57;11.87;;;13.10;53.00;;;;;;5011808;28;20209;-85
2022/03/29 00:43:35;;;;;;;13.50;11.47;;;12.70;54.10;;;;;;5015417;28;20202;-86
2022/03/29 00:46:03;;;;;;;11.97;10.90;;;12.40;55.00;;;;;;5008557;28;20319;-86
2022/03/29 00:48:29;;;;;;;14.17;11.57;;;12.30;55.50;;;;;;5008414;28;20731;-86
2022/03/29 00:50:55;;;;;;;11.33;10.30;;;12.50;54.70;;;;;;5014079;28;20210;-86
2022/03/29 00:53:22;;;;;;;11.63;10.50;;;12.60;55.10;;;;;;5015696;28;20203;-86
2022/03/29 00:55:49;;;;;;;11.80;10.60;;;12.70;55.60;;;;;;5005069;28;20561;-86
2022/03/29 00:58:15;;;;;;;11.77;10.77;;;12.80;55.30;;;;;;5005745;28;20191;-86
2022/03/29 01:00:41;;;;;;;12.00;10.80;;;12.80;55.30;;;;;;5013264;28;20264;-86
2022/03/29 01:03:08;;;;;;;12.50;11.10;;;12.60;55.30;;;;;;5015681;28;20203;-86
2022/03/29 01:05:33;;;;;;;11.07;9.57;;;12.60;55.10;;;;;;5008754;28;20197;-86
2022/03/29 01:08:00;;;;;;;20.97;11.83;;;12.40;56.70;;;;;;5014859;28;20327;-86
2022/03/29 01:10:26;;;;;;;23.20;10.90;;;12.30;57.40;;;;;;5005034;28;20239;-86
2022/03/29 01:12:55;;;;;;;17.00;10.87;;;12.30;57.30;;;;;;5007467;28;20212;-86
2022/03/29 01:15:24;;;;;;;14.07;10.03;;;12.50;56.90;;;;;;5013976;28;20649;-86
2022/03/29 01:17:50;;;;;;;16.23;10.13;;;12.60;56.60;;;;;;5021230;28;20287;-86
2022/03/29 01:20:22;;;;;;;11.03;10.00;;;12.40;56.80;;;;;;5021476;28;20198;-86
2022/03/29 01:22:50;;;;;;;13.37;10.00;;;12.50;56.90;;;;;;5004655;28;20200;-85
2022/03/29 01:25:21;;;;;;;13.33;10.53;;;12.50;56.50;;;;;;5003881;28;20200;-85
2022/03/29 01:27:48;;;;;;;12.43;10.80;;;12.60;55.90;;;;;;5005698;28;20209;-85
2022/03/29 01:30:15;;;;;;;10.73;9.80;;;12.70;56.10;;;;;;5008860;28;20221;-86
2022/03/29 01:32:44;;;;;;;14.77;10.13;;;12.60;55.80;;;;;;4991815;28;20208;-86
2022/03/29 01:35:11;;;;;;;12.20;10.13;;;12.60;56.00;;;;;;5009673;28;20195;-86
2022/03/29 01:37:37;;;;;;;12.03;10.83;;;12.70;56.20;;;;;;5005465;28;20206;-86
2022/03/29 01:40:12;;;;;;;11.10;10.10;;;12.70;56.50;;;;;;5013798;28;20192;-84
2022/03/29 01:42:41;;;;;;;12.73;10.13;;;12.70;56.50;;;;;;5024710;28;20188;-85
2022/03/29 01:45:07;;;;;;;11.40;10.30;;;12.70;56.40;;;;;;5020429;28;20179;-86
2022/03/29 01:47:33;;;;;;;12.00;10.70;;;12.70;56.10;;;;;;5013639;28;20233;-86
2022/03/29 01:49:59;;;;;;;11.17;9.90;;;12.60;56.90;;;;;;5008387;28;20217;-87
2022/03/29 01:52:25;;;;;;;14.97;11.20;;;12.50;57.30;;;;;;4994047;28;20200;-86
2022/03/29 01:54:51;;;;;;;10.97;9.93;;;12.40;58.20;;;;;;5007753;28;20192;-85
2022/03/29 01:57:16;;;;;;;11.60;10.40;;;12.40;57.80;;;;;;5012468;28;20271;-85
2022/03/29 02:02:26;;;;;;;11.90;10.67;;;12.20;58.40;;;;;;5011506;28;20211;-86
2022/03/29 02:04:52;;;;;;;11.23;10.07;;;12.30;57.90;;;;;;5007103;28;20204;-85
2022/03/29 02:07:18;;;;;;;10.33;9.30;;;12.30;58.00;;;;;;5005510;28;20212;-86
2022/03/29 02:09:44;;;;;;;11.00;9.90;;;12.20;58.00;;;;;;5009117;28;20204;-85
2022/03/29 02:12:12;;;;;;;10.80;9.67;;;12.30;58.00;;;;;;5025414;28;20189;-85
2022/03/29 02:14:38;;;;;;;11.57;10.37;;;12.30;58.10;;;;;;5016410;28;20674;-85
2022/03/29 02:17:05;;;;;;;11.40;10.30;;;12.20;57.90;;;;;;5027400;28;20293;-86
2022/03/29 02:19:30;;;;;;;12.90;10.63;;;12.30;58.00;;;;;;5021200;28;20193;-86
2022/03/29 02:21:56;;;;;;;13.23;11.77;;;12.20;58.00;;;;;;5011616;28;20201;-86
2022/03/29 02:24:21;;;;;;;13.30;12.00;;;12.30;58.10;;;;;;5004929;28;20640;-86
2022/03/29 02:26:47;;;;;;;12.00;10.73;;;12.30;57.80;;;;;;5007080;28;20219;-86
2022/03/29 02:29:13;;;;;;;15.37;11.77;;;12.20;57.70;;;;;;5010155;28;20253;-85
2022/03/29 02:31:38;;;;;;;10.57;9.23;;;12.40;57.40;;;;;;5008588;28;20198;-85
2022/03/29 02:34:04;;;;;;;11.27;10.27;;;12.50;57.20;;;;;;5013353;28;20268;-86
2022/03/29 02:36:30;;;;;;;11.80;10.60;;;12.50;56.90;;;;;;5005842;28;20221;-86
2022/03/29 02:38:55;;;;;;;12.47;11.17;;;12.50;56.80;;;;;;5008445;28;20589;-86
2022/03/29 02:41:21;;;;;;;13.00;11.13;;;12.50;56.90;;;;;;5010219;28;20709;-86
2022/03/29 02:43:46;;;;;;;12.33;11.13;;;12.40;57.50;;;;;;5005553;28;20623;-86
2022/03/29 02:46:13;;;;;;;12.40;11.30;;;12.40;57.40;;;;;;5004471;28;20233;-86
2022/03/29 02:48:39;;;;;;;13.33;11.13;;;12.40;57.00;;;;;;5006871;28;20193;-85
2022/03/29 02:51:05;;;;;;;12.33;11.17;;;12.40;57.40;;;;;;5019851;28;20213;-87
2022/03/29 02:53:30;;;;;;;11.77;10.30;;;12.40;57.20;;;;;;5016138;28;20184;-85
2022/03/29 02:55:56;;;;;;;13.37;11.50;;;12.40;57.50;;;;;;5019737;28;20248;-86
2022/03/29 02:58:22;;;;;;;11.53;10.43;;;12.30;57.60;;;;;;5019324;28;20201;-85
2022/03/29 03:00:48;;;;;;;12.00;10.90;;;12.30;57.50;;;;;;5021415;28;20197;-86
2022/03/29 03:03:14;;;;;;;12.83;11.23;;;12.30;57.70;;;;;;5015420;28;20204;-85
2022/03/29 03:05:40;;;;;;;11.97;10.87;;;12.20;58.20;;;;;;5010603;28;20609;-85
2022/03/29 03:08:06;;;;;;;12.53;11.33;;;11.90;59.30;;;;;;5007334;28;20207;-86
2022/03/29 03:10:31;;;;;;;11.60;10.30;;;11.70;59.50;;;;;;5006153;28;20230;-86
2022/03/29 03:12:57;;;;;;;11.33;10.30;;;11.60;60.70;;;;;;5019426;28;20250;-86
2022/03/29 03:15:24;;;;;;;12.63;10.70;;;11.70;60.00;;;;;;5013112;28;20196;-86
2022/03/29 03:17:52;;;;;;;12.77;10.03;;;11.80;59.60;;;;;;5002040;28;20223;-86
2022/03/29 03:20:18;;;;;;;11.57;10.20;;;11.90;59.50;;;;;;5009495;28;20195;-85
2022/03/29 03:22:44;;;;;;;12.57;10.63;;;11.90;59.80;;;;;;5005722;28;20231;-85
2022/03/29 03:25:10;;;;;;;11.00;9.70;;;11.90;59.80;;;;;;5007820;28;20198;-86
2022/03/29 03:27:38;;;;;;;11.30;10.30;;;11.90;59.40;;;;;;5006049;28;20208;-86
2022/03/29 03:30:06;;;;;;;13.37;10.80;;;11.90;59.50;;;;;;5012137;28;20211;-86
2022/03/29 03:32:31;;;;;;;11.37;10.17;;;11.80;59.70;;;;;;5011395;28;20248;-86
2022/03/29 03:34:57;;;;;;;11.23;10.23;;;11.80;59.80;;;;;;5010144;28;20192;-86
2022/03/29 03:37:23;;;;;;;12.07;10.97;;;11.80;59.40;;;;;;5012052;28;20213;-86
2022/03/29 03:39:49;;;;;;;12.83;10.80;;;11.90;59.10;;;;;;5010962;28;20199;-86
2022/03/29 03:42:15;;;;;;;13.70;12.00;;;12.00;58.70;;;;;;5014600;28;20191;-86
2022/03/29 03:44:41;;;;;;;12.97;11.33;;;11.90;58.90;;;;;;5008945;28;20263;-85
2022/03/29 03:47:10;;;;;;;12.73;11.47;;;11.90;59.30;;;;;;5007671;28;20310;-86
2022/03/29 03:49:38;;;;;;;11.83;10.53;;;11.80;59.20;;;;;;5006829;28;20222;-86
2022/03/29 03:52:05;;;;;;;11.53;10.33;;;11.80;59.50;;;;;;5010059;28;20204;-85
2022/03/29 03:54:40;;;;;;;13.93;12.07;;;11.70;60.00;;;;;;5012471;28;20183;-86
2022/03/29 03:57:06;;;;;;;11.90;10.63;;;11.40;60.20;;;;;;5010782;28;20301;-86
2022/03/29 03:59:32;;;;;;;13.37;12.07;;;11.30;60.00;;;;;;5011971;28;20194;-87
2022/03/29 04:01:59;;;;;;;11.63;10.53;;;11.40;60.30;;;;;;5011371;28;20576;-86
2022/03/29 04:04:25;;;;;;;11.60;10.60;;;11.50;60.40;;;;;;5018511;28;20183;-85
2022/03/29 04:06:51;;;;;;;15.87;11.70;;;11.60;59.90;;;;;;5046612;28;20252;-86
2022/03/29 04:09:17;;;;;;;12.33;11.03;;;11.60;59.70;;;;;;5022964;28;20565;-86
2022/03/29 04:11:43;;;;;;;13.03;11.67;;;11.60;59.50;;;;;;5015299;28;20218;-86
2022/03/29 04:14:09;;;;;;;12.70;10.57;;;11.60;59.10;;;;;;5010275;28;20255;-86
2022/03/29 04:16:35;;;;;;;12.67;10.97;;;11.70;58.60;;;;;;5011526;28;20245;-86
2022/03/29 04:19:01;;;;;;;12.17;10.97;;;11.70;58.70;;;;;;5015731;28;20265;-85
2022/03/29 04:21:28;;;;;;;11.70;10.47;;;11.60;59.60;;;;;;5012062;28;20192;-86
2022/03/29 04:23:53;;;;;;;10.77;9.70;;;11.40;60.00;;;;;;5016306;28;20199;-86
2022/03/29 04:26:19;;;;;;;11.83;10.57;;;11.40;59.80;;;;;;5009763;28;20261;-85
2022/03/29 04:28:45;;;;;;;11.57;9.90;;;11.50;59.20;;;;;;5007820;28;20195;-84
2022/03/29 04:31:11;;;;;;;17.83;15.33;;;11.50;59.30;;;;;;5009285;28;20218;-87
2022/03/29 04:33:37;;;;;;;13.00;11.20;;;11.50;59.50;;;;;;5017677;28;20195;-86
2022/03/29 04:36:04;;;;;;;11.47;10.27;;;11.30;60.70;;;;;;5001416;28;20242;-87
2022/03/29 04:38:30;;;;;;;11.90;10.77;;;11.10;60.90;;;;;;5017045;28;20202;-86
2022/03/29 04:40:56;;;;;;;12.30;10.77;;;11.20;61.30;;;;;;5021948;28;20201;-87
2022/03/29 04:43:22;;;;;;;11.83;10.60;;;11.20;61.30;;;;;;5009525;28;20185;-87
2022/03/29 04:45:48;;;;;;;12.63;10.70;;;11.20;61.20;;;;;;5006325;28;20193;-87
2022/03/29 04:48:14;;;;;;;12.10;10.73;;;11.30;61.60;;;;;;5011234;28;20550;-87
2022/03/29 04:50:40;;;;;;;15.97;10.50;;;11.20;61.30;;;;;;5007029;28;20419;-87
2022/03/29 04:53:07;;;;;;;13.17;10.43;;;11.20;61.20;;;;;;5016362;28;20192;-87
2022/03/29 04:55:33;;;;;;;11.90;10.70;;;11.30;61.10;;;;;;5021775;28;20193;-87
2022/03/29 04:58:00;;;;;;;14.57;11.57;;;11.30;60.80;;;;;;5020969;28;20190;-87
2022/03/29 05:00:26;;;;;;;12.23;10.93;;;11.30;61.10;;;;;;5020067;28;20550;-87
2022/03/29 05:02:52;;;;;;;11.53;10.47;;;11.30;61.00;;;;;;5017195;28;20183;-87
2022/03/29 05:05:18;;;;;;;11.77;10.57;;;11.20;61.40;;;;;;5014964;28;20185;-88
2022/03/29 05:07:44;;;;;;;15.67;11.93;;;11.10;61.70;;;;;;5019438;28;20205;-87
2022/03/29 05:10:11;;;;;;;44.90;36.93;;;10.80;63.10;;;;;;5015908;28;20213;-87
2022/03/29 05:12:46;;;;;;;24.70;22.17;;;10.80;62.50;;;;;;5017800;28;20221;-87
2022/03/29 05:15:14;;;;;;;18.83;16.83;;;10.90;62.40;;;;;;5019403;28;20199;-87
2022/03/29 05:17:42;;;;;;;16.97;15.23;;;11.00;62.00;;;;;;5015397;28;20414;-86
2022/03/29 05:20:08;;;;;;;14.50;11.73;;;11.00;62.10;;;;;;5016612;28;20203;-87
2022/03/29 05:23:02;;;;;;;15.83;11.57;;;10.70;63.40;;;;;;5017516;28;20237;-87
2022/03/29 05:25:28;;;;;;;12.50;11.20;;;10.50;64.00;;;;;;5016647;28;20205;-87
2022/03/29 05:27:57;;;;;;;16.47;12.63;;;10.60;63.60;;;;;;5016936;28;20569;-87
2022/03/29 05:30:23;;;;;;;14.63;11.90;;;10.70;63.10;;;;;;5022386;28;20211;-86
2022/03/29 05:33:00;;;;;;;14.27;12.20;;;10.90;62.60;;;;;;5019742;28;20776;-86
2022/03/29 05:35:29;;;;;;;19.57;14.50;;;10.90;62.40;;;;;;5019116;28;20190;-86
2022/03/29 05:37:57;;;;;;;13.80;12.37;;;11.00;61.90;;;;;;5003755;28;20221;-86
2022/03/29 05:40:24;;;;;;;19.20;15.23;;;10.90;62.40;;;;;;5030122;28;20653;-86
2022/03/29 05:42:52;;;;;;;12.60;11.00;;;10.90;63.00;;;;;;5021349;28;20823;-86
2022/03/29 05:45:18;;;;;;;15.87;11.90;;;10.90;63.00;;;;;;5022040;28;20189;-88
2022/03/29 05:50:28;;;;;;;17.33;10.60;;;10.50;65.00;;;;;;5018447;28;20224;-87
2022/03/29 05:52:55;;;;;;;14.03;11.27;;;10.60;64.30;;;;;;5022717;28;20188;-87
2022/03/29 05:55:22;;;;;;;14.50;11.70;;;10.80;63.60;;;;;;5021085;28;20187;-87
2022/03/29 05:57:51;;;;;;;34.53;29.83;;;10.90;62.60;;;;;;5028379;28;20309;-86
2022/03/29 06:00:18;;;;;;;17.37;13.93;;;11.00;62.60;;;;;;5037093;28;20262;-86
2022/03/29 06:02:44;;;;;;;26.77;15.07;;;11.00;62.30;;;;;;5019982;28;20186;-87
2022/03/29 06:05:10;;;;;;;23.60;13.37;;;11.00;62.90;;;;;;5025850;28;20186;-87
2022/03/29 06:07:36;;;;;;;25.77;13.67;;;11.00;63.30;;;;;;5031853;28;20715;-87
2022/03/29 06:10:04;;;;;;;14.77;13.13;;;11.00;63.90;;;;;;5028509;28;20247;-87
2022/03/29 06:12:30;;;;;;;16.23;12.73;;;11.10;62.60;;;;;;5026622;28;20206;-87
2022/03/29 06:14:56;;;;;;;16.20;13.63;;;11.10;62.20;;;;;;5017772;28;20186;-87
2022/03/29 06:17:21;;;;;;;15.47;14.07;;;11.20;62.00;;;;;;5017193;28;20269;-87
2022/03/29 06:19:47;;;;;;;19.73;14.13;;;11.30;62.00;;;;;;5019378;28;20195;-87
2022/03/29 06:22:13;;;;;;;21.73;14.87;;;11.20;62.70;;;;;;5020215;28;20241;-88
2022/03/29 06:24:40;;;;;;;15.73;14.20;;;11.20;63.10;;;;;;5019889;28;20258;-86
2022/03/29 06:27:06;;;;;;;18.17;14.70;;;11.30;62.80;;;;;;5016864;28;20209;-86
2022/03/29 06:29:32;;;;;;;15.67;14.10;;;11.50;63.10;;;;;;5016746;28;20213;-86
2022/03/29 06:31:59;;;;;;;21.73;15.93;;;11.60;61.60;;;;;;5018763;28;20183;-86
2022/03/29 06:34:25;;;;;;;14.97;13.23;;;11.60;62.60;;;;;;5018482;28;20179;-89
2022/03/29 06:36:50;;;;;;;14.70;12.90;;;11.30;64.20;;;;;;5016689;28;20218;-87
2022/03/29 06:39:16;;;;;;;18.63;13.60;;;11.40;63.10;;;;;;5013985;28;20195;-87
2022/03/29 06:41:42;;;;;;;16.87;13.80;;;11.50;62.70;;;;;;5018031;28;20521;-86
2022/03/29 06:44:08;;;;;;;18.73;13.87;;;11.60;62.50;;;;;;5020932;28;20223;-87
2022/03/29 06:46:34;;;;;;;15.83;14.20;;;11.70;62.70;;;;;;5016630;28;20228;-87
2022/03/29 06:49:02;;;;;;;18.70;15.67;;;11.90;61.90;;;;;;5013882;28;20605;-88
2022/03/29 06:51:36;;;;;;;17.17;15.17;;;11.90;62.10;;;;;;5019328;28;20210;-88
2022/03/29 06:54:04;;;;;;;18.90;14.63;;;11.90;61.50;;;;;;5020051;28;20239;-88
2022/03/29 06:56:30;;;;;;;17.40;14.50;;;11.90;60.60;;;;;;5020832;28;20205;-86
2022/03/29 06:58:57;;;;;;;19.23;14.37;;;12.00;61.10;;;;;;5022292;28;20196;-86
2022/03/29 07:01:23;;;;;;;18.27;14.37;;;12.10;61.00;;;;;;5021717;28;20219;-89
2022/03/29 07:03:49;;;;;;;18.20;15.60;;;12.10;60.90;;;;;;5018274;28;20271;-86
2022/03/29 07:06:14;;;;;;;18.47;14.87;;;12.10;60.80;;;;;;5018862;28;20228;-87
2022/03/29 07:11:16;;;;;;;16.13;13.77;;;12.10;60.50;;;;;;5013695;28;20216;-88
2022/03/29 07:11:26;;;;;;;22.60;15.30;;;12.10;61.30;;;;;;5018254;28;20212;-89
2022/03/29 07:13:53;;;;;;;19.03;15.13;;;12.20;60.60;;;;;;5017292;28;20203;-87
2022/03/29 07:16:20;;;;;;;16.17;14.43;;;12.20;59.70;;;;;;5014494;28;20213;-88
2022/03/29 07:18:46;;;;;;;16.27;14.53;;;12.20;59.90;;;;;;5012079;28;20185;-87
2022/03/29 07:21:11;;;;;;;16.27;14.37;;;12.30;60.00;;;;;;5011835;28;20725;-87
2022/03/29 07:23:38;;;;;;;15.77;13.90;;;12.40;59.40;;;;;;5010386;28;20212;-87
2022/03/29 07:26:04;;;;;;;16.13;14.53;;;12.30;59.80;;;;;;5019617;28;20224;-87
2022/03/29 07:28:30;;;;;;;15.97;14.43;;;12.50;58.90;;;;;;5017976;28;20197;-87
2022/03/29 07:30:56;;;;;;;16.17;14.57;;;12.60;58.60;;;;;;5018262;28;20600;-87
2022/03/29 07:33:22;;;;;;;17.37;14.67;;;12.70;57.90;;;;;;5018092;28;20234;-87
2022/03/29 07:35:48;;;;;;;15.83;13.37;;;12.70;59.00;;;;;;5017641;28;20433;-86
2022/03/29 07:38:15;;;;;;;18.47;15.13;;;12.80;58.40;;;;;;5017516;28;20194;-86
2022/03/29 07:40:41;;;;;;;16.20;14.50;;;12.90;58.40;;;;;;5017045;28;20206;-87
2022/03/29 07:43:10;;;;;;;15.33;13.83;;;12.80;59.60;;;;;;5022017;28;20195;-87
2022/03/29 07:45:35;;;;;;;18.07;15.50;;;13.00;59.00;;;;;;5017167;28;20189;-87
2022/03/29 07:48:03;;;;;;;16.00;14.40;;;12.90;59.80;;;;;;5018189;28;20532;-87
2022/03/29 07:50:31;;;;;;;16.70;14.93;;;12.90;59.10;;;;;;5021692;28;20697;-87
2022/03/29 07:52:59;;;;;;;16.23;14.20;;;12.90;60.00;;;;;;5038351;28;20187;-86
2022/03/29 07:55:26;;;;;;;18.97;15.10;;;13.00;59.40;;;;;;5028859;28;20181;-88
2022/03/29 07:57:51;;;;;;;19.03;14.87;;;13.10;60.10;;;;;;5020494;28;20402;-86
2022/03/29 08:00:32;;;;;;;17.60;14.87;;;13.00;60.30;;;;;;5023938;28;20217;-86
2022/03/29 08:03:00;;;;;;;21.83;14.67;;;13.00;59.70;;;;;;5017296;28;20240;-87
2022/03/29 08:05:27;;;;;;;19.70;15.37;;;13.00;58.80;;;;;;5018913;28;20190;-88
2022/03/29 08:07:52;;;;;;;18.00;13.97;;;13.10;58.60;;;;;;5016934;28;20215;-87
2022/03/29 08:10:18;;;;;;;18.10;14.17;;;13.20;57.10;;;;;;5016407;28;20759;-88
2022/03/29 08:12:45;;;;;;;15.00;13.43;;;13.20;57.80;;;;;;5014779;28;20190;-88
2022/03/29 08:15:11;;;;;;;15.40;13.60;;;13.30;56.40;;;;;;5016104;28;20679;-88
2022/03/29 08:17:38;;;;;;;17.63;14.53;;;13.50;55.40;;;;;;5015612;28;20210;-88
2022/03/29 08:20:05;;;;;;;15.53;13.60;;;13.50;52.90;;;;;;5017151;28;20593;-86
2022/03/29 08:22:35;;;;;;;17.60;14.57;;;13.50;54.30;;;;;;5017993;28;20721;-88
2022/03/29 08:25:02;;;;;;;16.57;14.87;;;13.70;53.90;;;;;;5014006;28;20672;-86
2022/03/29 08:27:28;;;;;;;16.47;14.70;;;13.80;54.30;;;;;;5013685;28;20210;-86
2022/03/29 08:29:54;;;;;;;17.80;16.00;;;13.70;55.10;;;;;;5014240;28;20375;-87
2022/03/29 08:32:20;;;;;;;17.17;15.40;;;13.60;55.00;;;;;;5014434;28;20189;-87
2022/03/29 08:34:46;;;;;;;16.80;15.10;;;13.70;54.10;;;;;;5015336;28;20218;-87
2022/03/29 08:37:12;;;;;;;21.50;17.37;;;13.60;55.40;;;;;;5015830;28;20264;-86
2022/03/29 08:39:37;;;;;;;19.10;17.10;;;13.60;55.60;;;;;;5012993;28;20584;-87
2022/03/29 08:42:10;;;;;;;22.57;18.57;;;13.80;55.60;;;;;;5026614;28;20214;-84
2022/03/29 08:44:38;;;;;;;20.63;18.40;;;14.10;54.10;;;;;;5023640;28;20190;-86
2022/03/29 08:47:12;;;;;;;20.00;17.73;;;14.10;53.50;;;;;;5020668;28;20244;-86
2022/03/29 08:49:38;;;;;;;20.10;17.90;;;14.00;54.50;;;;;;5004696;28;20190;-88
2022/03/29 08:52:05;;;;;;;21.93;19.63;;;14.00;53.40;;;;;;5017524;28;20224;-87
2022/03/29 08:54:32;;;;;;;19.80;17.67;;;14.40;52.30;;;;;;5017068;28;20201;-88
2022/03/29 08:56:58;;;;;;;27.80;18.33;;;14.50;53.20;;;;;;5021310;28;20208;-84
2022/03/29 08:59:26;;;;;;;21.53;19.10;;;14.50;54.10;;;;;;5021390;28;20197;-82
2022/03/29 09:01:52;;;;;;;27.87;20.30;;;14.50;52.80;;;;;;5022599;28;20277;-84
2022/03/29 09:04:23;;;;;;;25.13;21.13;;;14.80;51.30;;;;;;5016701;28;20191;-84
2022/03/29 09:06:56;;;;;;;23.53;21.13;;;15.10;50.10;;;;;;5015426;28;20280;-83
2022/03/29 09:09:29;;;;;;;23.77;21.17;;;15.00;50.80;;;;;;5014232;28;20257;-85
2022/03/29 09:11:57;;;;;;;22.93;19.97;;;15.20;51.90;;;;;;5013316;28;20190;-86
2022/03/29 09:14:25;;;;;;;23.53;21.13;;;15.40;51.60;;;;;;5014566;28;20542;-83
2022/03/29 09:16:51;;;;;;;58.70;25.47;;;15.50;50.90;;;;;;5015711;28;20205;-88
2022/03/29 09:19:19;;;;;;;33.17;23.70;;;15.70;48.90;;;;;;5012739;28;20189;-83
2022/03/29 09:21:46;;;;;;;65.07;27.20;;;15.80;48.40;;;;;;4991582;28;20581;-85
2022/03/29 09:24:14;;;;;;;26.83;24.13;;;16.00;47.70;;;;;;5010311;28;20186;-87
2022/03/29 09:26:52;;;;;;;26.40;23.57;;;15.90;48.70;;;;;;5011843;28;20720;-85
2022/03/29 09:29:23;;;;;;;25.60;23.00;;;15.80;48.60;;;;;;5012864;28;20174;-85
2022/03/29 09:32:07;;;;;;;29.37;24.37;;;16.10;47.00;;;;;;5011518;28;20244;-85
2022/03/29 09:34:34;;;;;;;28.43;24.40;;;16.20;47.30;;;;;;5013234;28;20189;-87
2022/03/29 09:37:01;;;;;;;31.70;25.80;;;16.40;47.20;;;;;;5010334;28;20703;-85
2022/03/29 09:39:37;;;;;;;27.90;24.93;;;16.50;47.00;;;;;;5009440;28;20192;-87
2022/03/29 09:42:08;;;;;;;29.07;24.40;;;16.40;47.10;;;;;;5009055;28;20276;-90
2022/03/29 09:44:46;;;;;;;28.87;25.67;;;16.60;46.70;;;;;;5014234;28;20196;-83
2022/03/29 09:47:14;;;;;;;34.13;26.13;;;16.70;46.80;;;;;;5030067;28;20228;-84
2022/03/29 09:50:08;;;;;;;29.67;24.80;;;16.90;45.50;;;;;;5014792;28;20202;-83
2022/03/29 09:52:44;;;;;;;29.73;25.13;;;16.70;45.50;;;;;;5017900;28;20190;-84
2022/03/29 09:55:15;;;;;;;29.13;24.47;;;16.70;46.70;;;;;;5016640;28;20190;-83
2022/03/29 09:57:51;;;;;;;29.90;26.27;;;16.70;47.30;;;;;;5017616;28;20587;-88
2022/03/29 10:00:24;;;;;;;27.60;24.47;;;17.10;45.90;;;;;;5014173;28;20200;-88
2022/03/29 10:02:51;;;;;;;30.40;27.20;;;17.10;45.50;;;;;;5012722;28;20196;-89
2022/03/29 10:05:19;;;;;;;28.33;25.37;;;17.00;45.00;;;;;;5017960;28;20288;-88
2022/03/29 10:09:25;;;;;;;29.40;26.17;;;17.30;44.20;;;;;;5019313;28;20224;-89
2022/03/29 10:10:38;;;;;;;29.20;25.27;;;17.60;43.20;;;;;;5022862;28;20233;-87
2022/03/29 10:13:03;;;;;;;30.07;25.97;;;17.60;42.90;;;;;;5018582;28;20324;-89
2022/03/29 10:15:29;;;;;;;28.37;25.30;;;17.50;42.90;;;;;;5022396;28;20366;-90
2022/03/29 10:17:56;;;;;;;29.30;25.48;;;17.70;42.10;;;;;;5021126;28;20212;-89
2022/03/29 10:20:22;;;;;;;28.77;25.60;;;17.50;42.50;;;;;;5018355;28;20203;-89
2022/03/29 10:22:48;;;;;;;29.23;26.03;;;17.70;43.00;;;;;;5015838;28;20288;-88
2022/03/29 10:25:14;;;;;;;31.10;25.97;;;17.90;42.30;;;;;;5014713;28;20287;-90
2022/03/29 10:27:40;;;;;;;28.77;25.73;;;17.90;42.40;;;;;;5016490;28;20314;-90
2022/03/29 10:30:06;;;;;;;27.70;24.90;;;18.10;41.90;;;;;;5015417;28;20223;-87
2022/03/29 10:32:32;;;;;;;34.53;26.93;;;18.20;42.30;;;;;;5017161;28;20192;-89
2022/03/29 10:35:09;;;;;;;28.33;25.23;;;18.30;41.60;;;;;;5015596;28;20191;-89
2022/03/29 10:37:55;;;;;;;28.30;24.23;;;18.50;41.10;;;;;;5025100;28;20222;-86
2022/03/29 10:40:37;;;;;;;25.73;22.97;;;18.20;41.40;;;;;;4994042;28;20202;-85
2022/03/29 10:43:28;;;;;;;31.70;24.10;;;18.00;39.90;;;;;;5015073;28;20219;-87
2022/03/29 10:45:55;;;;;;;27.55;21.48;;;17.90;39.10;;;;;;5015758;28;20580;-88
2022/03/29 10:48:20;;;;;;;27.35;23.08;;;17.90;39.20;;;;;;5013928;28;20694;-88
2022/03/29 10:50:58;;;;;;;25.80;22.80;;;18.30;38.50;;;;;;5016675;28;20225;-88
2022/03/29 10:53:26;;;;;;;27.38;22.42;;;18.50;37.90;;;;;;5010839;28;20189;-88
2022/03/29 10:56:11;;;;;;;26.80;23.70;;;19.10;37.20;;;;;;5014122;28;20189;-90
2022/03/29 10:58:56;;;;;;;25.15;22.50;;;19.30;37.90;;;;;;5004665;28;20276;-89
2022/03/29 11:01:22;;;;;;;28.20;24.10;;;18.90;37.80;;;;;;5011018;28;20192;-89
2022/03/29 11:04:26;;;;;;;26.50;22.15;;;18.70;39.40;;;;;;5014848;28;20195;-89
2022/03/29 11:07:11;;;;;;;24.60;21.98;;;19.10;36.90;;;;;;4986962;28;20241;-89
2022/03/29 11:09:37;;;;;;;26.38;20.13;;;19.50;35.90;;;;;;5012915;28;20249;-85
2022/03/29 11:12:04;;;;;;;24.27;21.33;;;19.60;35.60;;;;;;5013135;28;20248;-88
2022/03/29 11:14:38;;;;;;;24.00;21.60;;;19.80;34.10;;;;;;5012287;28;20196;-87
2022/03/29 11:17:09;;;;;;;30.13;21.15;;;19.90;34.50;;;;;;5016746;28;20736;-88
2022/03/29 11:19:40;;;;;;;22.70;20.23;;;19.90;34.30;;;;;;5019274;28;20185;-88
2022/03/29 11:22:25;;;;;;;22.92;20.40;;;19.90;34.30;;;;;;5021059;28;20272;-88
2022/03/29 11:24:52;;;;;;;21.95;19.73;;;20.10;32.50;;;;;;5034909;28;20737;-86
2022/03/29 11:27:37;;;;;;;24.08;19.48;;;20.00;33.30;;;;;;5022875;28;20209;-86
2022/03/29 11:30:12;;;;;;;21.45;19.15;;;20.30;32.10;;;;;;5016147;28;20279;-88
2022/03/29 11:32:43;;;;;;;24.35;20.40;;;20.30;31.90;;;;;;5021419;28;20622;-87
2022/03/29 11:35:11;;;;;;;21.58;19.33;;;19.70;33.70;;;;;;5016422;28;20243;-88
2022/03/29 11:37:44;;;;;;;21.13;18.92;;;19.80;33.40;;;;;;5017269;28;20235;-87
2022/03/29 11:40:13;;;;;;;23.40;19.15;;;19.70;33.70;;;;;;5032502;28;20190;-87
2022/03/29 11:42:52;;;;;;;23.13;20.38;;;19.50;33.60;;;;;;5021067;28;20190;-87
2022/03/29 11:45:20;;;;;;;22.90;20.10;;;19.40;33.20;;;;;;5012930;28;20174;-87
2022/03/29 11:48:17;;;;;;;25.48;19.75;;;19.10;33.80;;;;;;5014978;28;20245;-88
2022/03/29 11:50:49;;;;;;;21.65;19.45;;;18.90;34.70;;;;;;5012100;28;20213;-87
2022/03/29 11:53:25;;;;;;;24.33;19.42;;;19.30;35.20;;;;;;5014068;28;20240;-87
2022/03/29 11:56:05;;;;;;;22.60;20.20;;;19.60;33.10;;;;;;5014225;28;20189;-87
2022/03/29 11:58:32;;;;;;;22.38;19.63;;;19.80;32.10;;;;;;5013973;28;20192;-88
2022/03/29 12:01:03;;;;;;;22.50;19.83;;;19.90;32.60;;;;;;5013829;28;20194;-88
2022/03/29 12:03:38;;;;;;;21.92;18.73;;;20.10;32.10;;;;;;5015288;28;20280;-88
2022/03/29 12:06:08;;;;;;;26.02;19.42;;;20.30;32.30;;;;;;5015277;28;20202;-88
2022/03/29 12:08:44;;;;;;;25.48;19.98;;;20.70;31.30;;;;;;5013663;28;20234;-87
2022/03/29 12:11:10;;;;;;;23.27;19.30;;;21.10;30.60;;;;;;5019236;28;20580;-88
2022/03/29 12:13:36;;;;;;;19.70;17.65;;;21.40;30.40;;;;;;5016781;28;20194;-87
2022/03/29 12:16:25;;;;;;;21.65;18.00;;;21.50;29.90;;;;;;5016598;28;20259;-88
2022/03/29 12:18:51;;;;;;;20.33;18.33;;;21.70;28.20;;;;;;5015409;28;20186;-87
2022/03/29 12:21:20;;;;;;;26.83;18.63;;;21.90;27.70;;;;;;5018363;28;20200;-88
2022/03/29 12:24:01;;;;;;;19.15;17.10;;;22.00;27.60;;;;;;5014411;28;20190;-87
2022/03/29 12:26:28;;;;;;;18.90;17.00;;;21.70;28.40;;;;;;5016932;28;20566;-87
2022/03/29 12:28:54;;;;;;;18.45;16.55;;;20.80;28.30;;;;;;5014091;28;20194;-86
2022/03/29 12:31:20;;;;;;;19.13;15.82;;;20.20;28.80;;;;;;5020266;28;20296;-87
2022/03/29 12:33:46;;;;;;;18.73;16.52;;;19.70;29.20;;;;;;5021556;28;20190;-87
2022/03/29 12:36:14;;;;;;;19.95;17.20;;;19.70;29.90;;;;;;4997655;28;20221;-87
2022/03/29 12:38:54;;;;;;;18.55;15.75;;;19.90;29.00;;;;;;5017733;28;20216;-88
2022/03/29 12:41:53;;;;;;;19.42;17.52;;;20.00;30.00;;;;;;5016888;28;20196;-88